sensor_id;sensor_type;location;lat;lon;timestamp;P1;durP1;ratioP1;P2;durP2;ratioP2
26223;SDS011;14820;48.682;8.890;2022-12-20T00:01:14;19.08;;;11.25;;
26223;SDS011;14820;48.682;8.890;2022-12-20T00:03:42;19.88;;;10.90;;
26223;SDS011;14820;48.682;8.890;2022-12-20T00:06:09;20.65;;;11.43;;
26223;SDS011;14820;48.682;8.890;2022-12-20T00:08:37;19.23;;;10.95;;
26223;SDS011;14820;48.682;8.890;2022-12-20T00:11:04;18.17;;;10.38;;
26223;SDS011;14820;48.682;8.890;2022-12-20T00:13:31;22.15;;;11.98;;
26223;SDS011;14820;48.682;8.890;2022-12-20T00:16:07;20.35;;;11.10;;
26223;SDS011;14820;48.682;8.890;2022-12-20T00:18:36;18.23;;;10.88;;
26223;SDS011;14820;48.682;8.890;2022-12-20T00:21:03;20.42;;;11.07;;
26223;SDS011;14820;48.682;8.890;2022-12-20T00:23:31;17.58;;;10.80;;
26223;SDS011;14820;48.682;8.890;2022-12-20T00:28:30;19.35;;;10.35;;
26223;SDS011;14820;48.682;8.890;2022-12-20T00:30:57;19.33;;;10.40;;
26223;SDS011;14820;48.682;8.890;2022-12-20T00:33:23;17.63;;;11.02;;
26223;SDS011;14820;48.682;8.890;2022-12-20T00:35:49;17.80;;;10.45;;
26223;SDS011;14820;48.682;8.890;2022-12-20T00:38:15;15.43;;;9.20;;
26223;SDS011;14820;48.682;8.890;2022-12-20T00:40:43;14.52;;;9.20;;
26223;SDS011;14820;48.682;8.890;2022-12-20T00:43:09;14.00;;;9.02;;
26223;SDS011;14820;48.682;8.890;2022-12-20T00:45:35;21.13;;;9.90;;
26223;SDS011;14820;48.682;8.890;2022-12-20T00:48:00;14.63;;;8.93;;
26223;SDS011;14820;48.682;8.890;2022-12-20T00:50:26;22.75;;;12.82;;
26223;SDS011;14820;48.682;8.890;2022-12-20T00:52:52;59.53;;;23.45;;
26223;SDS011;14820;48.682;8.890;2022-12-20T00:55:17;70.30;;;24.80;;
26223;SDS011;14820;48.682;8.890;2022-12-20T00:57:43;32.38;;;15.00;;
26223;SDS011;14820;48.682;8.890;2022-12-20T01:00:09;20.50;;;11.75;;
26223;SDS011;14820;48.682;8.890;2022-12-20T01:02:35;19.95;;;10.85;;
26223;SDS011;14820;48.682;8.890;2022-12-20T01:05:01;18.00;;;10.38;;
26223;SDS011;14820;48.682;8.890;2022-12-20T01:07:27;18.50;;;10.05;;
26223;SDS011;14820;48.682;8.890;2022-12-20T01:09:52;15.48;;;9.63;;
26223;SDS011;14820;48.682;8.890;2022-12-20T01:12:18;17.08;;;10.00;;
26223;SDS011;14820;48.682;8.890;2022-12-20T01:14:46;17.65;;;10.13;;
26223;SDS011;14820;48.682;8.890;2022-12-20T01:17:12;16.80;;;10.57;;
26223;SDS011;14820;48.682;8.890;2022-12-20T01:19:38;18.75;;;10.80;;
26223;SDS011;14820;48.682;8.890;2022-12-20T01:22:04;16.98;;;10.38;;
26223;SDS011;14820;48.682;8.890;2022-12-20T01:24:30;15.18;;;9.88;;
26223;SDS011;14820;48.682;8.890;2022-12-20T01:26:55;18.85;;;10.07;;
26223;SDS011;14820;48.682;8.890;2022-12-20T01:29:21;19.27;;;10.57;;
26223;SDS011;14820;48.682;8.890;2022-12-20T01:31:47;17.00;;;10.40;;
26223;SDS011;14820;48.682;8.890;2022-12-20T01:34:12;15.23;;;9.60;;
26223;SDS011;14820;48.682;8.890;2022-12-20T01:36:38;17.52;;;10.00;;
26223;SDS011;14820;48.682;8.890;2022-12-20T01:39:10;20.77;;;10.10;;
26223;SDS011;14820;48.682;8.890;2022-12-20T01:41:41;16.35;;;9.98;;
26223;SDS011;14820;48.682;8.890;2022-12-20T01:46:41;16.60;;;9.60;;
26223;SDS011;14820;48.682;8.890;2022-12-20T01:49:08;18.45;;;9.93;;
26223;SDS011;14820;48.682;8.890;2022-12-20T01:51:54;14.13;;;8.38;;
26223;SDS011;14820;48.682;8.890;2022-12-20T01:54:27;15.73;;;8.98;;
26223;SDS011;14820;48.682;8.890;2022-12-20T01:57:03;18.88;;;9.43;;
26223;SDS011;14820;48.682;8.890;2022-12-20T01:59:34;14.57;;;9.00;;
26223;SDS011;14820;48.682;8.890;2022-12-20T02:02:04;16.58;;;9.32;;
26223;SDS011;14820;48.682;8.890;2022-12-20T02:04:33;16.80;;;10.05;;
26223;SDS011;14820;48.682;8.890;2022-12-20T02:06:59;18.08;;;10.00;;
26223;SDS011;14820;48.682;8.890;2022-12-20T02:09:26;15.07;;;8.80;;
26223;SDS011;14820;48.682;8.890;2022-12-20T02:17:11;13.95;;;9.13;;
26223;SDS011;14820;48.682;8.890;2022-12-20T02:25:05;14.50;;;9.57;;
26223;SDS011;14820;48.682;8.890;2022-12-20T02:31:13;16.55;;;8.73;;
26223;SDS011;14820;48.682;8.890;2022-12-20T02:33:43;15.32;;;9.10;;
26223;SDS011;14820;48.682;8.890;2022-12-20T02:36:17;15.95;;;9.95;;
26223;SDS011;14820;48.682;8.890;2022-12-20T02:38:43;13.18;;;8.30;;
26223;SDS011;14820;48.682;8.890;2022-12-20T02:44:09;15.93;;;9.00;;
26223;SDS011;14820;48.682;8.890;2022-12-20T02:46:57;16.70;;;9.60;;
26223;SDS011;14820;48.682;8.890;2022-12-20T02:49:26;15.95;;;9.23;;
26223;SDS011;14820;48.682;8.890;2022-12-20T02:51:56;15.43;;;9.20;;
26223;SDS011;14820;48.682;8.890;2022-12-20T02:54:24;15.68;;;9.13;;
26223;SDS011;14820;48.682;8.890;2022-12-20T02:56:55;15.63;;;9.30;;
26223;SDS011;14820;48.682;8.890;2022-12-20T03:01:58;15.85;;;9.45;;
26223;SDS011;14820;48.682;8.890;2022-12-20T03:04:25;14.60;;;8.85;;
26223;SDS011;14820;48.682;8.890;2022-12-20T03:06:56;14.93;;;8.82;;
26223;SDS011;14820;48.682;8.890;2022-12-20T03:09:25;15.43;;;9.25;;
26223;SDS011;14820;48.682;8.890;2022-12-20T03:11:51;17.63;;;8.40;;
26223;SDS011;14820;48.682;8.890;2022-12-20T03:14:18;15.05;;;8.90;;
26223;SDS011;14820;48.682;8.890;2022-12-20T03:16:44;16.02;;;8.35;;
26223;SDS011;14820;48.682;8.890;2022-12-20T03:19:10;11.75;;;7.30;;
26223;SDS011;14820;48.682;8.890;2022-12-20T03:21:35;13.68;;;8.30;;
26223;SDS011;14820;48.682;8.890;2022-12-20T03:24:01;14.30;;;7.97;;
26223;SDS011;14820;48.682;8.890;2022-12-20T03:26:30;13.27;;;8.00;;
26223;SDS011;14820;48.682;8.890;2022-12-20T03:28:55;15.20;;;8.05;;
26223;SDS011;14820;48.682;8.890;2022-12-20T03:31:21;15.20;;;8.57;;
26223;SDS011;14820;48.682;8.890;2022-12-20T03:33:47;14.25;;;8.32;;
26223;SDS011;14820;48.682;8.890;2022-12-20T03:36:12;17.25;;;8.52;;
26223;SDS011;14820;48.682;8.890;2022-12-20T03:38:38;14.48;;;8.48;;
26223;SDS011;14820;48.682;8.890;2022-12-20T03:41:04;13.40;;;8.10;;
26223;SDS011;14820;48.682;8.890;2022-12-20T03:43:30;15.65;;;9.02;;
26223;SDS011;14820;48.682;8.890;2022-12-20T03:45:55;13.00;;;8.13;;
26223;SDS011;14820;48.682;8.890;2022-12-20T03:48:21;15.07;;;8.80;;
26223;SDS011;14820;48.682;8.890;2022-12-20T03:50:47;14.00;;;8.15;;
26223;SDS011;14820;48.682;8.890;2022-12-20T03:53:13;12.82;;;7.65;;
26223;SDS011;14820;48.682;8.890;2022-12-20T03:55:39;11.82;;;7.38;;
26223;SDS011;14820;48.682;8.890;2022-12-20T03:58:05;14.35;;;6.93;;
26223;SDS011;14820;48.682;8.890;2022-12-20T04:00:30;12.35;;;6.78;;
26223;SDS011;14820;48.682;8.890;2022-12-20T04:02:56;11.48;;;6.95;;
26223;SDS011;14820;48.682;8.890;2022-12-20T04:05:22;13.90;;;6.07;;
26223;SDS011;14820;48.682;8.890;2022-12-20T04:07:47;11.07;;;6.32;;
26223;SDS011;14820;48.682;8.890;2022-12-20T04:10:13;10.85;;;6.45;;
26223;SDS011;14820;48.682;8.890;2022-12-20T04:12:39;14.80;;;7.63;;
26223;SDS011;14820;48.682;8.890;2022-12-20T04:15:07;13.77;;;8.18;;
26223;SDS011;14820;48.682;8.890;2022-12-20T04:17:39;17.30;;;9.68;;
26223;SDS011;14820;48.682;8.890;2022-12-20T04:20:08;18.67;;;9.90;;
26223;SDS011;14820;48.682;8.890;2022-12-20T04:22:47;16.98;;;9.40;;
26223;SDS011;14820;48.682;8.890;2022-12-20T04:25:14;13.55;;;7.50;;
26223;SDS011;14820;48.682;8.890;2022-12-20T04:27:41;13.52;;;7.22;;
26223;SDS011;14820;48.682;8.890;2022-12-20T04:30:10;12.82;;;7.40;;
26223;SDS011;14820;48.682;8.890;2022-12-20T04:32:39;13.13;;;8.48;;
26223;SDS011;14820;48.682;8.890;2022-12-20T04:35:12;13.05;;;8.25;;
26223;SDS011;14820;48.682;8.890;2022-12-20T04:37:37;12.80;;;7.57;;
26223;SDS011;14820;48.682;8.890;2022-12-20T04:40:06;11.50;;;7.40;;
26223;SDS011;14820;48.682;8.890;2022-12-20T04:42:33;14.70;;;7.88;;
26223;SDS011;14820;48.682;8.890;2022-12-20T04:44:59;10.52;;;6.70;;
26223;SDS011;14820;48.682;8.890;2022-12-20T04:47:24;9.77;;;6.40;;
26223;SDS011;14820;48.682;8.890;2022-12-20T04:49:50;12.60;;;6.22;;
26223;SDS011;14820;48.682;8.890;2022-12-20T04:52:22;9.82;;;5.80;;
26223;SDS011;14820;48.682;8.890;2022-12-20T04:55:06;9.90;;;5.40;;
26223;SDS011;14820;48.682;8.890;2022-12-20T04:57:32;10.02;;;5.93;;
26223;SDS011;14820;48.682;8.890;2022-12-20T04:59:58;10.43;;;5.85;;
26223;SDS011;14820;48.682;8.890;2022-12-20T05:02:23;10.55;;;5.65;;
26223;SDS011;14820;48.682;8.890;2022-12-20T05:04:55;7.97;;;5.95;;
26223;SDS011;14820;48.682;8.890;2022-12-20T05:07:24;9.75;;;6.00;;
26223;SDS011;14820;48.682;8.890;2022-12-20T05:09:49;11.07;;;5.95;;
26223;SDS011;14820;48.682;8.890;2022-12-20T05:12:15;8.00;;;5.60;;
26223;SDS011;14820;48.682;8.890;2022-12-20T05:14:40;9.82;;;5.78;;
26223;SDS011;14820;48.682;8.890;2022-12-20T05:17:09;11.20;;;6.07;;
26223;SDS011;14820;48.682;8.890;2022-12-20T05:19:38;9.20;;;5.53;;
26223;SDS011;14820;48.682;8.890;2022-12-20T05:22:06;10.55;;;7.32;;
26223;SDS011;14820;48.682;8.890;2022-12-20T05:24:55;10.05;;;5.03;;
26223;SDS011;14820;48.682;8.890;2022-12-20T05:27:40;8.73;;;5.10;;
26223;SDS011;14820;48.682;8.890;2022-12-20T05:30:06;8.65;;;4.75;;
26223;SDS011;14820;48.682;8.890;2022-12-20T05:32:36;7.07;;;4.80;;
26223;SDS011;14820;48.682;8.890;2022-12-20T05:35:02;8.88;;;5.00;;
26223;SDS011;14820;48.682;8.890;2022-12-20T05:37:29;9.35;;;5.00;;
26223;SDS011;14820;48.682;8.890;2022-12-20T05:40:05;6.57;;;4.40;;
26223;SDS011;14820;48.682;8.890;2022-12-20T05:42:31;11.65;;;6.38;;
26223;SDS011;14820;48.682;8.890;2022-12-20T05:44:57;7.10;;;4.50;;
26223;SDS011;14820;48.682;8.890;2022-12-20T05:47:26;10.52;;;4.95;;
26223;SDS011;14820;48.682;8.890;2022-12-20T05:50:13;8.40;;;5.15;;
26223;SDS011;14820;48.682;8.890;2022-12-20T05:52:41;10.65;;;4.82;;
26223;SDS011;14820;48.682;8.890;2022-12-20T06:06:56;6.65;;;4.40;;
26223;SDS011;14820;48.682;8.890;2022-12-20T06:12:28;9.40;;;4.40;;
26223;SDS011;14820;48.682;8.890;2022-12-20T06:15:04;10.38;;;4.80;;
26223;SDS011;14820;48.682;8.890;2022-12-20T06:17:45;7.72;;;4.28;;
26223;SDS011;14820;48.682;8.890;2022-12-20T06:20:14;7.10;;;3.75;;
26223;SDS011;14820;48.682;8.890;2022-12-20T06:22:42;7.78;;;4.93;;
26223;SDS011;14820;48.682;8.890;2022-12-20T06:25:09;8.60;;;5.40;;
26223;SDS011;14820;48.682;8.890;2022-12-20T06:27:39;7.80;;;4.95;;
26223;SDS011;14820;48.682;8.890;2022-12-20T06:30:06;11.07;;;6.97;;
26223;SDS011;14820;48.682;8.890;2022-12-20T06:32:32;9.10;;;5.30;;
26223;SDS011;14820;48.682;8.890;2022-12-20T06:34:58;6.50;;;4.10;;
26223;SDS011;14820;48.682;8.890;2022-12-20T06:37:24;5.72;;;3.80;;
26223;SDS011;14820;48.682;8.890;2022-12-20T06:39:56;8.25;;;5.93;;
26223;SDS011;14820;48.682;8.890;2022-12-20T06:42:28;11.80;;;7.10;;
26223;SDS011;14820;48.682;8.890;2022-12-20T06:44:54;10.27;;;6.30;;
26223;SDS011;14820;48.682;8.890;2022-12-20T06:47:23;10.48;;;6.25;;
26223;SDS011;14820;48.682;8.890;2022-12-20T06:49:49;10.57;;;6.15;;
26223;SDS011;14820;48.682;8.890;2022-12-20T06:52:18;7.80;;;4.85;;
26223;SDS011;14820;48.682;8.890;2022-12-20T06:54:44;10.73;;;5.30;;
26223;SDS011;14820;48.682;8.890;2022-12-20T06:57:09;9.65;;;4.88;;
26223;SDS011;14820;48.682;8.890;2022-12-20T06:59:41;9.40;;;5.68;;
26223;SDS011;14820;48.682;8.890;2022-12-20T07:02:08;11.23;;;6.43;;
26223;SDS011;14820;48.682;8.890;2022-12-20T07:04:42;8.98;;;5.93;;
26223;SDS011;14820;48.682;8.890;2022-12-20T07:07:08;12.35;;;7.65;;
26223;SDS011;14820;48.682;8.890;2022-12-20T07:09:33;16.20;;;9.40;;
26223;SDS011;14820;48.682;8.890;2022-12-20T07:11:59;11.68;;;6.93;;
26223;SDS011;14820;48.682;8.890;2022-12-20T07:14:28;9.07;;;6.63;;
26223;SDS011;14820;48.682;8.890;2022-12-20T07:16:56;11.13;;;6.82;;
26223;SDS011;14820;48.682;8.890;2022-12-20T07:22:33;13.50;;;7.43;;
26223;SDS011;14820;48.682;8.890;2022-12-20T07:25:04;12.88;;;7.82;;
26223;SDS011;14820;48.682;8.890;2022-12-20T07:27:35;11.27;;;7.30;;
26223;SDS011;14820;48.682;8.890;2022-12-20T07:30:01;13.63;;;7.72;;
26223;SDS011;14820;48.682;8.890;2022-12-20T07:32:32;12.60;;;7.70;;
26223;SDS011;14820;48.682;8.890;2022-12-20T07:35:01;9.73;;;6.13;;
26223;SDS011;14820;48.682;8.890;2022-12-20T07:37:30;9.05;;;5.78;;
26223;SDS011;14820;48.682;8.890;2022-12-20T07:40:00;18.08;;;8.20;;
26223;SDS011;14820;48.682;8.890;2022-12-20T07:42:25;15.27;;;7.43;;
26223;SDS011;14820;48.682;8.890;2022-12-20T07:44:51;12.20;;;7.45;;
26223;SDS011;14820;48.682;8.890;2022-12-20T07:47:17;8.88;;;5.70;;
26223;SDS011;14820;48.682;8.890;2022-12-20T07:49:43;10.57;;;6.38;;
26223;SDS011;14820;48.682;8.890;2022-12-20T07:52:09;12.38;;;7.25;;
26223;SDS011;14820;48.682;8.890;2022-12-20T07:54:37;13.00;;;7.13;;
26223;SDS011;14820;48.682;8.890;2022-12-20T07:57:11;11.52;;;5.95;;
26223;SDS011;14820;48.682;8.890;2022-12-20T07:59:55;9.80;;;5.30;;
26223;SDS011;14820;48.682;8.890;2022-12-20T08:02:24;8.18;;;4.82;;
26223;SDS011;14820;48.682;8.890;2022-12-20T08:04:55;8.63;;;5.85;;
26223;SDS011;14820;48.682;8.890;2022-12-20T08:07:21;8.93;;;5.30;;
26223;SDS011;14820;48.682;8.890;2022-12-20T08:09:48;9.85;;;6.45;;
26223;SDS011;14820;48.682;8.890;2022-12-20T08:12:14;12.07;;;6.95;;
26223;SDS011;14820;48.682;8.890;2022-12-20T08:14:41;17.75;;;9.57;;
26223;SDS011;14820;48.682;8.890;2022-12-20T08:17:13;24.33;;;12.40;;
26223;SDS011;14820;48.682;8.890;2022-12-20T08:19:44;22.67;;;11.50;;
26223;SDS011;14820;48.682;8.890;2022-12-20T08:22:11;17.70;;;9.25;;
26223;SDS011;14820;48.682;8.890;2022-12-20T08:24:37;13.70;;;6.25;;
26223;SDS011;14820;48.682;8.890;2022-12-20T08:27:04;10.95;;;5.95;;
26223;SDS011;14820;48.682;8.890;2022-12-20T08:29:33;18.45;;;10.65;;
26223;SDS011;14820;48.682;8.890;2022-12-20T08:32:20;22.65;;;10.88;;
26223;SDS011;14820;48.682;8.890;2022-12-20T08:34:49;13.25;;;8.07;;
26223;SDS011;14820;48.682;8.890;2022-12-20T08:37:27;10.57;;;6.18;;
26223;SDS011;14820;48.682;8.890;2022-12-20T08:39:56;13.70;;;6.40;;
26223;SDS011;14820;48.682;8.890;2022-12-20T08:42:25;10.32;;;6.07;;
26223;SDS011;14820;48.682;8.890;2022-12-20T08:44:51;10.38;;;4.97;;
26223;SDS011;14820;48.682;8.890;2022-12-20T08:47:20;15.88;;;7.07;;
26223;SDS011;14820;48.682;8.890;2022-12-20T08:49:51;13.50;;;5.60;;
26223;SDS011;14820;48.682;8.890;2022-12-20T08:52:16;11.63;;;6.38;;
26223;SDS011;14820;48.682;8.890;2022-12-20T08:54:42;16.95;;;8.98;;
26223;SDS011;14820;48.682;8.890;2022-12-20T08:57:08;12.52;;;7.03;;
26223;SDS011;14820;48.682;8.890;2022-12-20T08:59:39;12.45;;;6.78;;
26223;SDS011;14820;48.682;8.890;2022-12-20T09:02:06;12.60;;;6.05;;
26223;SDS011;14820;48.682;8.890;2022-12-20T09:04:32;10.30;;;5.20;;
26223;SDS011;14820;48.682;8.890;2022-12-20T09:06:58;10.98;;;5.80;;
26223;SDS011;14820;48.682;8.890;2022-12-20T09:09:23;16.23;;;6.20;;
26223;SDS011;14820;48.682;8.890;2022-12-20T09:11:49;10.85;;;5.32;;
26223;SDS011;14820;48.682;8.890;2022-12-20T09:14:17;12.80;;;6.07;;
26223;SDS011;14820;48.682;8.890;2022-12-20T09:16:43;11.05;;;5.70;;
26223;SDS011;14820;48.682;8.890;2022-12-20T09:19:09;14.20;;;6.18;;
26223;SDS011;14820;48.682;8.890;2022-12-20T09:21:38;17.92;;;6.47;;
26223;SDS011;14820;48.682;8.890;2022-12-20T09:24:04;14.63;;;6.22;;
26223;SDS011;14820;48.682;8.890;2022-12-20T09:26:30;8.27;;;4.95;;
26223;SDS011;14820;48.682;8.890;2022-12-20T09:28:56;9.23;;;4.80;;
26223;SDS011;14820;48.682;8.890;2022-12-20T09:31:23;8.00;;;4.82;;
26223;SDS011;14820;48.682;8.890;2022-12-20T09:33:52;8.35;;;4.90;;
26223;SDS011;14820;48.682;8.890;2022-12-20T09:36:19;8.65;;;5.03;;
26223;SDS011;14820;48.682;8.890;2022-12-20T09:38:46;9.15;;;5.30;;
26223;SDS011;14820;48.682;8.890;2022-12-20T09:41:28;6.65;;;4.03;;
26223;SDS011;14820;48.682;8.890;2022-12-20T09:44:10;8.52;;;4.45;;
26223;SDS011;14820;48.682;8.890;2022-12-20T09:46:40;7.40;;;4.20;;
26223;SDS011;14820;48.682;8.890;2022-12-20T09:49:13;12.60;;;4.05;;
26223;SDS011;14820;48.682;8.890;2022-12-20T09:54:38;8.47;;;3.77;;
26223;SDS011;14820;48.682;8.890;2022-12-20T09:57:16;6.55;;;4.13;;
26223;SDS011;14820;48.682;8.890;2022-12-20T09:59:43;7.80;;;4.07;;
26223;SDS011;14820;48.682;8.890;2022-12-20T10:02:10;8.63;;;4.82;;
26223;SDS011;14820;48.682;8.890;2022-12-20T10:04:37;12.50;;;4.85;;
26223;SDS011;14820;48.682;8.890;2022-12-20T10:19:57;6.90;;;3.97;;
26223;SDS011;14820;48.682;8.890;2022-12-20T10:25:17;9.77;;;3.97;;
26223;SDS011;14820;48.682;8.890;2022-12-20T10:27:43;11.80;;;6.70;;
26223;SDS011;14820;48.682;8.890;2022-12-20T10:30:14;13.18;;;5.70;;
26223;SDS011;14820;48.682;8.890;2022-12-20T10:32:44;7.40;;;4.80;;
26223;SDS011;14820;48.682;8.890;2022-12-20T10:37:57;7.85;;;4.80;;
26223;SDS011;14820;48.682;8.890;2022-12-20T10:40:28;10.88;;;5.95;;
26223;SDS011;14820;48.682;8.890;2022-12-20T10:42:54;9.35;;;5.28;;
26223;SDS011;14820;48.682;8.890;2022-12-20T10:47:46;8.60;;;6.28;;
26223;SDS011;14820;48.682;8.890;2022-12-20T10:50:14;10.95;;;6.30;;
26223;SDS011;14820;48.682;8.890;2022-12-20T10:52:41;9.93;;;6.10;;
26223;SDS011;14820;48.682;8.890;2022-12-20T10:57:52;14.13;;;7.63;;
26223;SDS011;14820;48.682;8.890;2022-12-20T11:00:28;7.95;;;5.03;;
26223;SDS011;14820;48.682;8.890;2022-12-20T11:03:27;7.28;;;4.43;;
26223;SDS011;14820;48.682;8.890;2022-12-20T11:05:52;6.57;;;3.80;;
26223;SDS011;14820;48.682;8.890;2022-12-20T11:08:19;7.03;;;3.80;;
26223;SDS011;14820;48.682;8.890;2022-12-20T11:10:46;5.25;;;3.28;;
26223;SDS011;14820;48.682;8.890;2022-12-20T11:13:25;9.70;;;3.70;;
26223;SDS011;14820;48.682;8.890;2022-12-20T11:15:55;9.55;;;3.88;;
26223;SDS011;14820;48.682;8.890;2022-12-20T11:18:32;6.88;;;3.80;;
26223;SDS011;14820;48.682;8.890;2022-12-20T11:23:39;5.88;;;3.70;;
26223;SDS011;14820;48.682;8.890;2022-12-20T11:36:40;7.70;;;3.63;;
26223;SDS011;14820;48.682;8.890;2022-12-20T11:42:04;8.63;;;4.97;;
26223;SDS011;14820;48.682;8.890;2022-12-20T11:53:18;9.85;;;4.13;;
26223;SDS011;14820;48.682;8.890;2022-12-20T11:55:57;6.32;;;4.20;;
26223;SDS011;14820;48.682;8.890;2022-12-20T11:58:42;4.72;;;3.13;;
26223;SDS011;14820;48.682;8.890;2022-12-20T12:01:31;9.18;;;3.90;;
26223;SDS011;14820;48.682;8.890;2022-12-20T12:04:03;5.88;;;3.92;;
26223;SDS011;14820;48.682;8.890;2022-12-20T12:06:41;16.58;;;7.70;;
26223;SDS011;14820;48.682;8.890;2022-12-20T12:11:41;18.40;;;9.10;;
26223;SDS011;14820;48.682;8.890;2022-12-20T12:17:20;11.52;;;6.55;;
26223;SDS011;14820;48.682;8.890;2022-12-20T12:20:06;10.75;;;5.53;;
26223;SDS011;14820;48.682;8.890;2022-12-20T12:22:46;8.30;;;5.22;;
26223;SDS011;14820;48.682;8.890;2022-12-20T12:25:16;6.82;;;4.50;;
26223;SDS011;14820;48.682;8.890;2022-12-20T12:27:46;8.80;;;4.20;;
26223;SDS011;14820;48.682;8.890;2022-12-20T12:30:12;8.15;;;4.20;;
26223;SDS011;14820;48.682;8.890;2022-12-20T12:32:51;9.77;;;4.32;;
26223;SDS011;14820;48.682;8.890;2022-12-20T12:35:24;7.80;;;4.18;;
26223;SDS011;14820;48.682;8.890;2022-12-20T12:46:00;6.40;;;4.00;;
26223;SDS011;14820;48.682;8.890;2022-12-20T12:48:38;9.25;;;3.95;;
26223;SDS011;14820;48.682;8.890;2022-12-20T12:51:07;6.67;;;4.77;;
26223;SDS011;14820;48.682;8.890;2022-12-20T12:53:35;10.00;;;4.57;;
26223;SDS011;14820;48.682;8.890;2022-12-20T12:59:08;6.82;;;4.07;;
26223;SDS011;14820;48.682;8.890;2022-12-20T13:01:48;6.78;;;3.90;;
26223;SDS011;14820;48.682;8.890;2022-12-20T13:11:49;8.48;;;4.82;;
26223;SDS011;14820;48.682;8.890;2022-12-20T13:19:52;6.97;;;4.03;;
26223;SDS011;14820;48.682;8.890;2022-12-20T13:22:25;8.13;;;4.45;;
26223;SDS011;14820;48.682;8.890;2022-12-20T13:24:58;7.40;;;4.72;;
26223;SDS011;14820;48.682;8.890;2022-12-20T13:27:47;10.10;;;5.40;;
26223;SDS011;14820;48.682;8.890;2022-12-20T13:41:01;7.15;;;4.30;;
26223;SDS011;14820;48.682;8.890;2022-12-20T13:43:45;10.13;;;5.82;;
26223;SDS011;14820;48.682;8.890;2022-12-20T13:46:21;11.93;;;5.88;;
26223;SDS011;14820;48.682;8.890;2022-12-20T13:49:01;11.05;;;4.80;;
26223;SDS011;14820;48.682;8.890;2022-12-20T13:51:28;9.93;;;5.10;;
26223;SDS011;14820;48.682;8.890;2022-12-20T13:54:11;8.75;;;5.30;;
26223;SDS011;14820;48.682;8.890;2022-12-20T13:56:50;8.85;;;5.30;;
26223;SDS011;14820;48.682;8.890;2022-12-20T13:59:26;12.00;;;6.85;;
26223;SDS011;14820;48.682;8.890;2022-12-20T14:01:56;34.25;;;15.10;;
26223;SDS011;14820;48.682;8.890;2022-12-20T14:04:27;18.33;;;8.88;;
26223;SDS011;14820;48.682;8.890;2022-12-20T14:07:07;24.42;;;12.75;;
26223;SDS011;14820;48.682;8.890;2022-12-20T14:09:37;17.90;;;10.00;;
26223;SDS011;14820;48.682;8.890;2022-12-20T14:12:05;20.27;;;10.48;;
26223;SDS011;14820;48.682;8.890;2022-12-20T14:14:45;22.52;;;10.43;;
26223;SDS011;14820;48.682;8.890;2022-12-20T14:23:10;11.75;;;5.40;;
26223;SDS011;14820;48.682;8.890;2022-12-20T14:25:42;19.33;;;8.50;;
26223;SDS011;14820;48.682;8.890;2022-12-20T14:28:18;21.15;;;8.13;;
26223;SDS011;14820;48.682;8.890;2022-12-20T14:30:52;16.48;;;6.60;;
26223;SDS011;14820;48.682;8.890;2022-12-20T14:33:19;15.27;;;7.35;;
26223;SDS011;14820;48.682;8.890;2022-12-20T14:35:52;13.43;;;6.30;;
26223;SDS011;14820;48.682;8.890;2022-12-20T14:38:19;11.18;;;6.05;;
26223;SDS011;14820;48.682;8.890;2022-12-20T14:40:53;15.85;;;8.48;;
26223;SDS011;14820;48.682;8.890;2022-12-20T14:43:32;12.15;;;6.78;;
26223;SDS011;14820;48.682;8.890;2022-12-20T14:46:14;13.55;;;6.20;;
26223;SDS011;14820;48.682;8.890;2022-12-20T14:48:43;11.35;;;6.95;;
26223;SDS011;14820;48.682;8.890;2022-12-20T14:51:12;13.40;;;6.97;;
26223;SDS011;14820;48.682;8.890;2022-12-20T14:53:44;13.00;;;8.05;;
26223;SDS011;14820;48.682;8.890;2022-12-20T14:56:16;15.70;;;7.85;;
26223;SDS011;14820;48.682;8.890;2022-12-20T14:58:44;13.45;;;7.90;;
26223;SDS011;14820;48.682;8.890;2022-12-20T15:03:50;11.07;;;7.13;;
26223;SDS011;14820;48.682;8.890;2022-12-20T15:09:01;31.25;;;17.08;;
26223;SDS011;14820;48.682;8.890;2022-12-20T15:11:29;29.55;;;16.02;;
26223;SDS011;14820;48.682;8.890;2022-12-20T15:13:55;35.88;;;18.50;;
26223;SDS011;14820;48.682;8.890;2022-12-20T15:16:29;34.10;;;16.45;;
26223;SDS011;14820;48.682;8.890;2022-12-20T15:18:59;55.58;;;26.13;;
26223;SDS011;14820;48.682;8.890;2022-12-20T15:21:30;70.82;;;33.72;;
26223;SDS011;14820;48.682;8.890;2022-12-20T15:24:20;47.35;;;23.50;;
26223;SDS011;14820;48.682;8.890;2022-12-20T15:26:49;37.92;;;19.75;;
26223;SDS011;14820;48.682;8.890;2022-12-20T15:29:16;33.38;;;18.25;;
26223;SDS011;14820;48.682;8.890;2022-12-20T15:31:46;37.53;;;20.90;;
26223;SDS011;14820;48.682;8.890;2022-12-20T15:36:44;99.53;;;46.47;;
26223;SDS011;14820;48.682;8.890;2022-12-20T15:39:11;92.35;;;44.15;;
26223;SDS011;14820;48.682;8.890;2022-12-20T15:41:40;45.97;;;23.73;;
26223;SDS011;14820;48.682;8.890;2022-12-20T15:44:20;37.10;;;19.52;;
26223;SDS011;14820;48.682;8.890;2022-12-20T15:46:48;37.15;;;16.92;;
26223;SDS011;14820;48.682;8.890;2022-12-20T15:49:15;32.33;;;16.55;;
26223;SDS011;14820;48.682;8.890;2022-12-20T15:51:41;28.48;;;15.45;;
26223;SDS011;14820;48.682;8.890;2022-12-20T15:54:28;28.45;;;14.52;;
26223;SDS011;14820;48.682;8.890;2022-12-20T15:56:57;29.70;;;13.43;;
26223;SDS011;14820;48.682;8.890;2022-12-20T15:59:23;26.13;;;13.63;;
26223;SDS011;14820;48.682;8.890;2022-12-20T16:01:51;21.77;;;12.10;;
26223;SDS011;14820;48.682;8.890;2022-12-20T16:04:20;19.40;;;11.63;;
26223;SDS011;14820;48.682;8.890;2022-12-20T16:06:50;17.83;;;9.52;;
26223;SDS011;14820;48.682;8.890;2022-12-20T16:09:21;13.93;;;8.80;;
26223;SDS011;14820;48.682;8.890;2022-12-20T16:11:50;14.00;;;8.43;;
26223;SDS011;14820;48.682;8.890;2022-12-20T16:14:17;17.10;;;9.38;;
26223;SDS011;14820;48.682;8.890;2022-12-20T16:16:50;20.70;;;10.65;;
26223;SDS011;14820;48.682;8.890;2022-12-20T16:19:15;19.13;;;10.68;;
26223;SDS011;14820;48.682;8.890;2022-12-20T16:21:45;18.98;;;11.68;;
26223;SDS011;14820;48.682;8.890;2022-12-20T16:24:13;23.05;;;14.15;;
26223;SDS011;14820;48.682;8.890;2022-12-20T16:26:43;23.45;;;15.85;;
26223;SDS011;14820;48.682;8.890;2022-12-20T16:29:10;28.90;;;15.88;;
26223;SDS011;14820;48.682;8.890;2022-12-20T16:31:37;27.10;;;16.88;;
26223;SDS011;14820;48.682;8.890;2022-12-20T16:34:05;33.33;;;17.45;;
26223;SDS011;14820;48.682;8.890;2022-12-20T16:36:31;26.02;;;15.63;;
26223;SDS011;14820;48.682;8.890;2022-12-20T16:38:58;24.88;;;14.25;;
26223;SDS011;14820;48.682;8.890;2022-12-20T16:41:26;26.88;;;15.98;;
26223;SDS011;14820;48.682;8.890;2022-12-20T16:43:54;27.00;;;16.88;;
26223;SDS011;14820;48.682;8.890;2022-12-20T16:46:22;28.90;;;16.67;;
26223;SDS011;14820;48.682;8.890;2022-12-20T16:48:51;24.83;;;15.10;;
26223;SDS011;14820;48.682;8.890;2022-12-20T16:51:31;24.20;;;13.85;;
26223;SDS011;14820;48.682;8.890;2022-12-20T16:53:59;19.83;;;12.10;;
26223;SDS011;14820;48.682;8.890;2022-12-20T16:56:29;20.55;;;11.13;;
26223;SDS011;14820;48.682;8.890;2022-12-20T16:58:55;20.10;;;11.07;;
26223;SDS011;14820;48.682;8.890;2022-12-20T17:01:23;18.27;;;10.45;;
26223;SDS011;14820;48.682;8.890;2022-12-20T17:03:54;15.25;;;8.07;;
26223;SDS011;14820;48.682;8.890;2022-12-20T17:06:20;11.30;;;6.28;;
26223;SDS011;14820;48.682;8.890;2022-12-20T17:08:46;12.23;;;7.03;;
26223;SDS011;14820;48.682;8.890;2022-12-20T17:11:17;10.70;;;6.07;;
26223;SDS011;14820;48.682;8.890;2022-12-20T17:13:55;7.43;;;4.70;;
26223;SDS011;14820;48.682;8.890;2022-12-20T17:16:24;10.60;;;5.47;;
26223;SDS011;14820;48.682;8.890;2022-12-20T17:18:51;8.07;;;4.82;;